Terminal Aerodrome Forecast
Issued by NWS

Home | Current Version | Previous Version | Graphics & Text | Print | Product List | Glossary On
Versions: 1 2 3 4 5 6 7 8 9 10 11 12 13 14 15
000
FTUS43 KMPX 240537
TAFRWF
TAF
KRWF 240537Z 2406/2506 14012KT P6SM OVC008
     FM241500 13014G22KT P6SM BKN015
     FM242000 12013G20KT 6SM -RASN BKN025 OVC090
     FM242200 12013KT 1SM -SN BR OVC015
      TEMPO 2423/2503 1/2SM SN FG=

USA.gov is the U.S. government's official web portal to all federal, state and local government web resources and services.